Witchford, United Kingdom
Current Conditions -  °F | °C
As of 12:58 AM on Thursday 23 Oct 2014 (Local Time) from EGUN Reporting Station
Broken Clouds Broken Clouds  
Wind Chill: 51°   Ceiling: 14000
Heat Index: 51°   Visibility: 6mi
Dew Point: 51°   Wind: 9mph
Humidity: 100%   Direction: 210°SSW
Pressure: 30.15"   Gusts: NA
Location:  52.39°N, 0.21°E
Report Text: EGUN 222358Z AUTO 21008KT 9999 BKN140 BKN170 10/10 A3015 RMK AO2 RAB2301E2311DZB2302E2309 SLP213 P0000 60000 T01040104 10110 20095 401380057 56006 $
Loading
Personal Weather Stations






























Interactive Weather Map
Tropical Storm Tracking
New forecast layout! Learn more

10-Day Weather Forecast

Advertisements
Track Severe Weather on mobile